createdAt,value
2018-07-31T00:01:28.510Z,9.37
2018-07-31T00:03:33.530Z,9.40
2018-07-31T00:05:39.558Z,8.13
2018-07-31T00:07:46.823Z,9.23
2018-07-31T00:09:55.047Z,7.60
2018-07-31T00:12:01.790Z,8.57
2018-07-31T00:14:08.339Z,8.73
2018-07-31T00:16:15.339Z,9.37
2018-07-31T00:18:20.319Z,8.73
2018-07-31T00:20:27.149Z,8.17
2018-07-31T00:22:33.294Z,6.97
2018-07-31T00:24:38.266Z,7.93
2018-07-31T00:26:44.791Z,9.87
2018-07-31T00:28:53.145Z,9.40
2018-07-31T00:30:58.135Z,6.20
2018-07-31T00:33:05.245Z,7.27
2018-07-31T00:35:12.197Z,5.90
2018-07-31T00:37:19.538Z,9.73
2018-07-31T00:39:24.505Z,12.13
2018-07-31T00:41:30.025Z,6.33
2018-07-31T00:43:34.998Z,13.33
2018-07-31T00:45:40.570Z,12.60
2018-07-31T00:47:45.531Z,12.07
2018-07-31T00:49:53.940Z,9.83
2018-07-31T00:51:59.087Z,10.17
2018-07-31T00:54:04.284Z,8.30
2018-07-31T00:56:09.272Z,7.50
2018-07-31T00:58:14.591Z,7.70
2018-07-31T01:00:19.552Z,9.43
2018-07-31T01:02:24.653Z,13.73
2018-07-31T01:04:29.621Z,11.17
2018-07-31T01:06:39.838Z,13.67
2018-07-31T01:08:44.757Z,9.17
2018-07-31T01:10:49.776Z,7.40
2018-07-31T01:12:54.774Z,12.47
2018-07-31T01:15:00.478Z,9.53
2018-07-31T01:17:05.490Z,10.27
2018-07-31T01:19:11.644Z,9.37
2018-07-31T01:21:16.606Z,10.70
2018-07-31T01:23:21.793Z,11.53
2018-07-31T01:25:26.933Z,9.60
2018-07-31T01:27:31.878Z,7.60
2018-07-31T01:29:36.788Z,8.80
2018-07-31T01:31:41.778Z,9.50
2018-07-31T01:33:46.805Z,7.67
2018-07-31T01:35:51.727Z,5.47
2018-07-31T01:37:57.115Z,10.03
2018-07-31T01:40:02.162Z,9.87
2018-07-31T01:42:06.970Z,5.67
2018-07-31T01:44:11.977Z,8.50
2018-07-31T01:46:17.940Z,8.13
2018-07-31T01:48:23.139Z,6.77
2018-07-31T01:50:28.131Z,7.50
2018-07-31T01:52:33.098Z,5.50
2018-07-31T01:54:38.054Z,7.20
2018-07-31T01:56:43.103Z,5.43
2018-07-31T01:58:48.126Z,7.53
2018-07-31T02:00:53.030Z,7.43
2018-07-31T02:02:58.042Z,5.40
2018-07-31T02:05:03.042Z,9.27
2018-07-31T02:07:08.001Z,6.20
2018-07-31T02:09:13.099Z,5.53
2018-07-31T02:11:18.420Z,7.70
2018-07-31T02:13:23.479Z,7.20
2018-07-31T02:15:28.430Z,8.63
2018-07-31T02:17:33.369Z,10.17
2018-07-31T02:19:38.290Z,7.03
2018-07-31T02:21:43.286Z,8.10
2018-07-31T02:23:48.223Z,7.07
2018-07-31T02:25:53.141Z,7.17
2018-07-31T02:27:58.232Z,11.03
2018-07-31T02:30:09.830Z,8.77
2018-07-31T02:32:15.219Z,6.27
2018-07-31T02:34:19.738Z,7.10
2018-07-31T02:36:25.257Z,10.30
2018-07-31T02:38:30.394Z,7.77
2018-07-31T02:40:35.438Z,8.40
2018-07-31T02:42:40.498Z,8.27
2018-07-31T02:44:45.437Z,10.03
2018-07-31T02:46:50.433Z,6.60
2018-07-31T02:48:55.330Z,8.13
2018-07-31T02:51:00.413Z,7.30
2018-07-31T02:53:05.425Z,9.73
2018-07-31T02:55:11.401Z,7.77
2018-07-31T02:57:16.406Z,8.97
2018-07-31T02:59:21.348Z,7.50
2018-07-31T03:01:26.284Z,7.67
2018-07-31T03:03:31.256Z,6.90
2018-07-31T03:05:36.230Z,7.33
2018-07-31T03:07:41.326Z,6.87
2018-07-31T03:09:46.263Z,6.40
2018-07-31T03:11:51.247Z,7.13
2018-07-31T03:13:56.227Z,7.23
2018-07-31T03:16:01.172Z,9.23
2018-07-31T03:18:06.202Z,7.27
2018-07-31T03:20:10.638Z,5.30
2018-07-31T03:22:15.537Z,7.37
2018-07-31T03:24:20.819Z,7.67
2018-07-31T03:26:25.755Z,9.23
2018-07-31T03:28:30.702Z,7.33
2018-07-31T03:30:35.792Z,6.77
2018-07-31T03:32:40.758Z,9.73
2018-07-31T03:34:45.729Z,5.40
2018-07-31T03:36:50.724Z,9.30
2018-07-31T03:38:55.790Z,7.63
2018-07-31T03:41:00.811Z,4.83
2018-07-31T03:43:06.094Z,6.77
2018-07-31T03:45:11.066Z,6.50
2018-07-31T03:47:15.975Z,6.23
2018-07-31T03:49:20.998Z,4.90
2018-07-31T03:51:26.229Z,5.97
2018-07-31T03:53:31.119Z,4.63
2018-07-31T03:55:36.156Z,4.17
2018-07-31T03:57:41.063Z,5.60
2018-07-31T03:59:46.047Z,5.77
2018-07-31T04:01:51.136Z,5.77
2018-07-31T04:03:56.251Z,5.30
2018-07-31T04:06:01.302Z,6.63
2018-07-31T04:08:06.238Z,6.53
2018-07-31T04:10:11.192Z,6.40
2018-07-31T04:12:16.156Z,6.17
2018-07-31T04:14:21.165Z,6.80
2018-07-31T04:16:26.488Z,5.07
2018-07-31T04:18:31.438Z,6.90
2018-07-31T04:20:36.361Z,4.43
2018-07-31T04:22:41.303Z,5.47
2018-07-31T04:24:46.258Z,5.47
2018-07-31T04:26:51.306Z,5.40
2018-07-31T04:28:56.231Z,6.13
2018-07-31T04:31:00.696Z,4.50
2018-07-31T04:33:05.454Z,5.60
2018-07-31T04:35:10.758Z,7.43
2018-07-31T04:37:15.771Z,5.20
2018-07-31T04:39:20.750Z,7.93
2018-07-31T04:41:25.741Z,6.87
2018-07-31T04:43:30.779Z,6.23
2018-07-31T04:45:35.788Z,4.37
2018-07-31T04:47:41.048Z,5.07
2018-07-31T04:49:45.996Z,4.07
2018-07-31T04:51:51.008Z,3.97
2018-07-31T04:53:55.966Z,6.10
2018-07-31T04:56:00.952Z,7.97
2018-07-31T04:58:06.037Z,7.23
2018-07-31T05:00:12.013Z,5.33
2018-07-31T05:02:17.943Z,6.97
2018-07-31T05:04:22.937Z,7.83
2018-07-31T05:06:28.535Z,9.27
2018-07-31T05:08:33.745Z,6.37
2018-07-31T05:10:38.709Z,8.33
2018-07-31T05:12:44.574Z,6.20
2018-07-31T05:14:49.502Z,5.00
2018-07-31T05:16:54.511Z,7.50
2018-07-31T05:18:59.455Z,7.00
2018-07-31T05:21:04.452Z,7.97
2018-07-31T05:23:09.429Z,4.67
2018-07-31T05:25:14.462Z,6.97
2018-07-31T05:27:19.483Z,8.27
2018-07-31T05:29:24.456Z,5.73
2018-07-31T05:31:29.440Z,6.57
2018-07-31T05:33:34.367Z,4.43
2018-07-31T05:35:39.405Z,3.73
2018-07-31T05:37:44.326Z,6.43
2018-07-31T05:39:49.280Z,6.50
2018-07-31T05:41:54.233Z,9.20
2018-07-31T05:43:59.209Z,6.27
2018-07-31T05:46:04.212Z,6.53
2018-07-31T05:48:09.139Z,8.87
2018-07-31T05:50:14.094Z,6.20
2018-07-31T05:52:19.103Z,7.20
2018-07-31T05:54:24.098Z,7.30
2018-07-31T05:56:29.037Z,6.10
2018-07-31T05:58:33.673Z,8.47
2018-07-31T06:00:38.703Z,3.10
2018-07-31T06:02:43.742Z,6.27
2018-07-31T06:04:48.750Z,4.63
2018-07-31T06:06:53.767Z,3.77
2018-07-31T06:08:58.773Z,4.77
2018-07-31T06:11:03.762Z,5.00
2018-07-31T06:13:08.730Z,5.37
2018-07-31T06:15:13.773Z,5.30
2018-07-31T06:17:18.283Z,4.67
2018-07-31T06:19:23.189Z,5.23
2018-07-31T06:21:28.172Z,4.07
2018-07-31T06:23:33.142Z,4.13
2018-07-31T06:25:38.160Z,5.83
2018-07-31T06:27:43.474Z,3.97
2018-07-31T06:29:48.411Z,5.13
2018-07-31T06:31:53.429Z,5.03
2018-07-31T06:33:58.383Z,6.73
2018-07-31T06:36:03.338Z,4.43
2018-07-31T06:38:08.277Z,3.77
2018-07-31T06:40:12.752Z,3.10
2018-07-31T06:42:17.630Z,3.23
2018-07-31T06:44:22.557Z,3.83
2018-07-31T06:46:27.565Z,4.13
2018-07-31T06:48:32.598Z,2.30
2018-07-31T06:50:37.525Z,2.60
2018-07-31T06:52:42.841Z,2.27
2018-07-31T06:54:47.678Z,4.63
2018-07-31T06:56:52.617Z,5.13
2018-07-31T06:58:57.677Z,3.00
2018-07-31T07:01:02.802Z,4.17
2018-07-31T07:03:07.853Z,3.13
2018-07-31T07:05:12.957Z,3.17
2018-07-31T07:07:17.950Z,2.17
2018-07-31T07:09:23.016Z,3.00
2018-07-31T07:11:28.022Z,1.70
2018-07-31T07:13:33.211Z,3.43
2018-07-31T07:15:38.172Z,3.00
2018-07-31T07:17:43.164Z,3.33
2018-07-31T07:19:48.145Z,3.93
2018-07-31T07:21:53.162Z,5.03
2018-07-31T07:23:58.136Z,4.83
2018-07-31T07:26:03.093Z,2.67
2018-07-31T07:28:08.167Z,4.90
2018-07-31T07:30:13.112Z,1.93
2018-07-31T07:32:18.079Z,1.70
2018-07-31T07:34:23.137Z,2.40
2018-07-31T07:36:28.208Z,3.90
2018-07-31T07:38:33.117Z,3.10
2018-07-31T07:40:38.066Z,3.40
2018-07-31T07:42:43.015Z,1.50
2018-07-31T07:44:47.953Z,3.40
2018-07-31T07:46:52.947Z,4.77
2018-07-31T07:48:58.026Z,4.37
2018-07-31T07:51:03.013Z,2.60
2018-07-31T07:53:07.940Z,3.70
2018-07-31T07:55:13.114Z,3.30
2018-07-31T07:57:30.044Z,3.77
2018-07-31T07:59:49.878Z,2.70
2018-07-31T08:01:55.957Z,2.27
2018-07-31T08:04:26.289Z,4.73
2018-07-31T08:06:57.269Z,3.90
2018-07-31T08:09:30.768Z,1.87
2018-07-31T08:12:00.821Z,3.67
2018-07-31T08:14:27.924Z,3.03
2018-07-31T08:16:57.950Z,3.33
2018-07-31T08:19:08.067Z,2.40
2018-07-31T08:21:42.411Z,4.17
2018-07-31T08:24:07.123Z,3.13
2018-07-31T08:26:31.350Z,4.87
2018-07-31T08:28:58.957Z,4.53
2018-07-31T08:31:28.510Z,5.13
2018-07-31T08:33:54.856Z,2.03
2018-07-31T08:36:21.059Z,3.27
2018-07-31T08:38:53.053Z,2.90
2018-07-31T08:41:05.648Z,5.20
2018-07-31T08:43:28.291Z,3.07
2018-07-31T08:45:41.779Z,3.20
2018-07-31T08:48:07.687Z,3.47
2018-07-31T08:50:19.014Z,2.73
2018-07-31T08:52:47.247Z,5.47
2018-07-31T08:55:10.793Z,2.10
2018-07-31T08:57:42.748Z,2.23
2018-07-31T09:00:10.419Z,2.40
2018-07-31T09:02:41.079Z,2.00
2018-07-31T09:05:09.337Z,5.97
2018-07-31T09:07:38.641Z,3.37
2018-07-31T09:10:09.308Z,6.87
2018-07-31T09:12:37.858Z,3.37
2018-07-31T09:15:08.409Z,10.67
2018-07-31T09:17:34.514Z,5.20
2018-07-31T09:22:30.129Z,6.70
2018-07-31T09:25:06.213Z,5.20
2018-07-31T09:27:33.437Z,5.47
2018-07-31T09:29:59.237Z,8.07
2018-07-31T09:32:28.895Z,3.77
2018-07-31T09:34:57.885Z,1.97
2018-07-31T09:37:29.541Z,5.03
2018-07-31T09:39:59.686Z,5.67
2018-07-31T09:42:28.004Z,7.20
2018-07-31T09:44:57.597Z,5.70
2018-07-31T09:47:25.713Z,3.70
2018-07-31T09:49:55.966Z,6.40
2018-07-31T09:52:28.630Z,6.37
2018-07-31T09:54:59.866Z,2.63
2018-07-31T09:57:30.168Z,4.93
2018-07-31T09:59:57.994Z,4.40
2018-07-31T10:02:25.695Z,3.37
2018-07-31T10:04:52.534Z,3.90
2018-07-31T10:07:20.846Z,6.03
2018-07-31T10:09:46.255Z,4.30
2018-07-31T10:12:16.408Z,2.07
2018-07-31T10:14:47.454Z,6.17
2018-07-31T10:17:10.326Z,3.20
2018-07-31T10:19:40.254Z,4.07
2018-07-31T10:22:09.951Z,5.40
2018-07-31T10:24:35.606Z,7.20
2018-07-31T10:27:07.157Z,5.12
2018-07-31T10:29:32.057Z,5.58
2018-07-31T10:32:02.025Z,4.20
2018-07-31T10:34:31.236Z,5.73
2018-07-31T10:36:59.558Z,7.33
2018-07-31T10:39:22.077Z,3.40
2018-07-31T10:41:46.451Z,7.83
2018-07-31T10:44:09.857Z,3.05
2018-07-31T10:46:28.973Z,2.15
2018-07-31T10:48:55.204Z,5.95
2018-07-31T10:51:21.724Z,3.90
2018-07-31T10:53:40.805Z,4.25
2018-07-31T10:56:03.091Z,2.87
2018-07-31T10:58:27.731Z,5.75
2018-07-31T11:00:43.414Z,6.22
2018-07-31T11:03:08.249Z,4.62
2018-07-31T11:05:29.058Z,6.15
2018-07-31T11:07:52.693Z,5.33
2018-07-31T11:10:03.515Z,3.35
2018-07-31T11:12:12.327Z,3.27
2018-07-31T11:14:19.166Z,4.78
2018-07-31T11:16:26.127Z,3.62
2018-07-31T11:18:34.385Z,5.30
2018-07-31T11:20:41.380Z,8.38
2018-07-31T11:22:48.748Z,8.33
2018-07-31T11:24:56.253Z,5.50
2018-07-31T11:27:04.580Z,4.12
2018-07-31T11:29:11.403Z,4.80
2018-07-31T11:31:17.912Z,5.70
2018-07-31T11:33:23.118Z,4.80
2018-07-31T11:35:28.398Z,7.72
2018-07-31T11:37:33.246Z,6.70
2018-07-31T11:39:38.268Z,4.92
2018-07-31T11:41:43.220Z,5.45
2018-07-31T11:43:48.202Z,4.33
2018-07-31T11:45:53.491Z,3.65
2018-07-31T11:47:58.388Z,5.28
2018-07-31T11:50:03.636Z,6.05
2018-07-31T11:52:08.581Z,7.15
2018-07-31T11:54:13.838Z,3.83
2018-07-31T11:56:18.807Z,5.55
2018-07-31T11:58:24.130Z,4.10
2018-07-31T12:00:29.075Z,4.35
2018-07-31T12:02:34.097Z,4.15
2018-07-31T12:04:39.187Z,6.70
2018-07-31T12:06:44.180Z,5.75
2018-07-31T12:08:49.146Z,6.78
2018-07-31T12:10:54.074Z,3.50
2018-07-31T12:12:59.003Z,4.87
2018-07-31T12:15:04.066Z,4.50
2018-07-31T12:17:08.980Z,3.83
2018-07-31T12:19:14.020Z,3.20
2018-07-31T12:21:19.091Z,4.60
2018-07-31T12:23:24.830Z,6.42
2018-07-31T12:25:29.886Z,5.17
2018-07-31T12:27:34.869Z,6.00
2018-07-31T12:29:40.017Z,4.85
2018-07-31T12:31:45.018Z,3.52
2018-07-31T12:33:50.058Z,5.03
2018-07-31T12:35:55.662Z,4.50
2018-07-31T12:38:00.830Z,5.28
2018-07-31T12:40:07.385Z,4.72
2018-07-31T12:42:12.291Z,4.33
2018-07-31T12:44:17.221Z,5.83
2018-07-31T12:46:22.202Z,4.35
2018-07-31T12:48:27.155Z,6.87
2018-07-31T12:50:32.178Z,4.67
2018-07-31T12:52:37.122Z,3.35
2018-07-31T12:54:42.029Z,3.80
2018-07-31T12:56:53.213Z,5.80
2018-07-31T12:58:59.790Z,6.35
2018-07-31T13:01:04.712Z,4.25
2018-07-31T13:03:09.622Z,8.43
2018-07-31T13:05:14.949Z,6.10
2018-07-31T13:07:20.244Z,2.92
2018-07-31T13:09:25.216Z,5.33
2018-07-31T13:11:30.174Z,4.62
2018-07-31T13:13:36.327Z,6.22
2018-07-31T13:15:41.751Z,7.45
2018-07-31T13:17:47.411Z,9.88
2018-07-31T13:19:52.485Z,4.60
2018-07-31T13:21:57.786Z,5.87
2018-07-31T13:24:05.865Z,5.75
2018-07-31T13:26:12.249Z,5.08
2018-07-31T13:28:18.534Z,3.95
2018-07-31T13:30:23.848Z,7.63
2018-07-31T13:32:29.034Z,5.25
2018-07-31T13:34:34.541Z,9.15
2018-07-31T13:36:39.543Z,6.40
2018-07-31T13:38:46.048Z,8.10
2018-07-31T13:40:51.219Z,8.35
2018-07-31T13:42:56.701Z,8.90
2018-07-31T13:45:02.277Z,7.92
2018-07-31T13:47:08.514Z,12.63
2018-07-31T13:49:13.502Z,9.35
2018-07-31T13:51:18.385Z,12.37
2018-07-31T13:53:24.009Z,8.53
2018-07-31T13:55:32.532Z,9.33
2018-07-31T13:57:39.039Z,8.28
2018-07-31T13:59:44.305Z,4.67
2018-07-31T14:01:49.311Z,5.70
2018-07-31T14:03:54.499Z,3.85
2018-07-31T14:05:59.437Z,7.12
2018-07-31T14:08:05.246Z,6.33
2018-07-31T14:10:10.276Z,6.72
2018-07-31T14:12:16.049Z,7.78
2018-07-31T14:14:21.738Z,9.85
2018-07-31T14:16:27.033Z,7.42
2018-07-31T14:18:32.804Z,7.47
2018-07-31T14:20:37.825Z,6.20
2018-07-31T14:22:43.298Z,9.75
2018-07-31T14:24:48.466Z,6.65
2018-07-31T14:26:53.921Z,12.93
2018-07-31T14:28:59.362Z,6.92
2018-07-31T14:31:07.902Z,6.75
2018-07-31T14:33:13.070Z,4.28
2018-07-31T14:35:18.037Z,7.30
2018-07-31T14:37:23.018Z,6.85
2018-07-31T14:39:28.017Z,8.60
2018-07-31T14:41:32.963Z,4.70
2018-07-31T14:43:38.931Z,6.42
2018-07-31T14:45:44.367Z,5.30
2018-07-31T14:47:49.255Z,6.53
2018-07-31T14:49:54.157Z,7.12
2018-07-31T14:51:59.606Z,7.62
2018-07-31T14:54:04.467Z,5.15
2018-07-31T14:56:09.464Z,4.40
2018-07-31T14:58:14.543Z,6.20
2018-07-31T15:00:19.504Z,4.47
2018-07-31T15:02:24.469Z,6.60
2018-07-31T15:04:29.395Z,5.97
2018-07-31T15:06:34.331Z,5.25
2018-07-31T15:08:40.131Z,4.90
2018-07-31T15:10:45.088Z,9.68
2018-07-31T15:12:50.053Z,10.98
2018-07-31T15:14:55.045Z,4.25
2018-07-31T15:17:00.042Z,4.50
2018-07-31T15:19:05.098Z,5.78
2018-07-31T15:21:10.074Z,4.05
2018-07-31T15:23:15.070Z,6.97
2018-07-31T15:25:20.057Z,5.25
2018-07-31T15:27:25.150Z,5.37
2018-07-31T15:29:30.188Z,5.05
2018-07-31T15:31:35.227Z,6.78
2018-07-31T15:33:40.160Z,5.30
2018-07-31T15:35:45.155Z,5.95
2018-07-31T15:37:50.110Z,4.10
2018-07-31T15:39:55.015Z,5.92
2018-07-31T15:41:59.998Z,6.92
2018-07-31T15:44:05.114Z,4.95
2018-07-31T15:46:10.105Z,5.17
2018-07-31T15:48:15.203Z,4.78
2018-07-31T15:50:20.141Z,3.23
2018-07-31T15:52:25.086Z,3.50
2018-07-31T15:54:30.015Z,3.30
2018-07-31T15:56:35.002Z,3.65
2018-07-31T15:58:40.201Z,2.67
2018-07-31T16:00:45.278Z,5.40
2018-07-31T16:02:50.209Z,2.52
2018-07-31T16:04:55.168Z,2.22
2018-07-31T16:06:59.636Z,4.67
2018-07-31T16:09:06.270Z,2.87
2018-07-31T16:11:11.190Z,4.00
2018-07-31T16:13:16.263Z,4.80
2018-07-31T16:15:21.167Z,2.03
2018-07-31T16:17:26.095Z,2.02
2018-07-31T16:19:31.134Z,3.15
2018-07-31T16:21:36.122Z,4.03
2018-07-31T16:23:41.097Z,1.57
2018-07-31T16:25:46.075Z,3.55
2018-07-31T16:27:51.032Z,1.90
2018-07-31T16:29:55.939Z,2.95
2018-07-31T16:32:01.255Z,3.40
2018-07-31T16:34:06.437Z,2.27
2018-07-31T16:36:10.858Z,3.67
2018-07-31T16:38:15.666Z,3.47
2018-07-31T16:40:20.570Z,3.53
2018-07-31T16:42:25.903Z,3.33
2018-07-31T16:44:30.811Z,3.95
2018-07-31T16:46:35.958Z,5.05
2018-07-31T16:48:40.903Z,2.52
2018-07-31T16:50:45.844Z,5.80
2018-07-31T16:52:50.789Z,5.83
2018-07-31T16:54:55.718Z,3.55
2018-07-31T16:57:00.712Z,2.00
2018-07-31T16:59:05.712Z,3.05
2018-07-31T17:01:12.617Z,2.52
2018-07-31T17:03:25.727Z,1.92
2018-07-31T17:05:39.559Z,2.60
2018-07-31T17:07:50.719Z,5.83
2018-07-31T17:09:59.720Z,3.95
2018-07-31T17:12:10.259Z,3.17
2018-07-31T17:14:20.521Z,2.37
2018-07-31T17:16:29.864Z,2.50
2018-07-31T17:18:35.430Z,3.47
2018-07-31T17:20:40.399Z,2.70
2018-07-31T17:22:45.339Z,1.87
2018-07-31T17:24:50.378Z,3.77
2018-07-31T17:26:55.362Z,3.47
2018-07-31T17:29:00.545Z,1.92
2018-07-31T17:31:05.620Z,2.42
2018-07-31T17:33:10.623Z,5.20
2018-07-31T17:35:15.707Z,2.60
2018-07-31T17:37:20.871Z,4.67
2018-07-31T17:39:25.826Z,3.87
2018-07-31T17:41:30.763Z,1.65
2018-07-31T17:43:35.727Z,2.58
2018-07-31T17:45:40.733Z,2.52
2018-07-31T17:47:45.775Z,2.98
2018-07-31T17:49:50.731Z,3.50
2018-07-31T17:51:55.701Z,2.08
2018-07-31T17:54:00.711Z,4.20
2018-07-31T17:56:05.663Z,2.37
2018-07-31T17:58:10.727Z,2.02
2018-07-31T18:00:15.714Z,3.03
2018-07-31T18:02:20.734Z,3.33
2018-07-31T18:04:25.806Z,3.17
2018-07-31T18:06:30.722Z,2.37
2018-07-31T18:08:35.717Z,3.40
2018-07-31T18:10:40.685Z,2.15
2018-07-31T18:12:45.677Z,3.62
2018-07-31T18:14:50.743Z,5.53
2018-07-31T18:16:55.698Z,5.35
2018-07-31T18:19:00.653Z,4.60
2018-07-31T18:21:05.606Z,4.28
2018-07-31T18:23:10.528Z,2.70
2018-07-31T18:25:15.581Z,4.87
2018-07-31T18:27:20.595Z,4.50
2018-07-31T18:29:25.605Z,4.25
2018-07-31T18:31:30.598Z,2.50
2018-07-31T18:33:35.615Z,2.62
2018-07-31T18:35:40.592Z,4.42
2018-07-31T18:37:45.517Z,3.15
2018-07-31T18:39:50.498Z,2.40
2018-07-31T18:41:55.477Z,5.83
2018-07-31T18:44:00.503Z,2.80
2018-07-31T18:46:05.584Z,2.27
2018-07-31T18:48:10.557Z,3.05
2018-07-31T18:50:15.513Z,2.20
2018-07-31T18:52:20.495Z,2.75
2018-07-31T18:54:25.502Z,2.15
2018-07-31T18:56:30.414Z,5.85
2018-07-31T18:58:35.313Z,2.08
2018-07-31T19:00:40.230Z,1.75
2018-07-31T19:02:45.760Z,2.45
2018-07-31T19:04:50.687Z,1.57
2018-07-31T19:06:55.679Z,2.27
2018-07-31T19:09:00.753Z,2.77
2018-07-31T19:11:05.751Z,1.32
2018-07-31T19:13:10.759Z,1.32
2018-07-31T19:15:15.673Z,2.80
2018-07-31T19:17:20.665Z,2.42
2018-07-31T19:19:25.101Z,1.00
2018-07-31T19:21:30.002Z,1.30
2018-07-31T19:23:34.944Z,2.10
2018-07-31T19:25:39.913Z,3.52
2018-07-31T19:27:45.090Z,1.82
2018-07-31T19:29:49.920Z,1.75
2018-07-31T19:31:55.962Z,3.22
2018-07-31T19:34:02.392Z,2.05
2018-07-31T19:36:08.459Z,2.67
2018-07-31T19:38:14.517Z,2.17
2018-07-31T19:40:20.636Z,2.33
2018-07-31T19:42:26.699Z,3.80
2018-07-31T19:44:32.736Z,2.25
2018-07-31T19:46:39.640Z,3.05
2018-07-31T19:48:46.293Z,1.90
2018-07-31T19:51:07.029Z,3.05
2018-07-31T19:53:32.892Z,2.15
2018-07-31T19:55:49.380Z,2.75
2018-07-31T19:58:08.806Z,1.10
2018-07-31T20:00:17.980Z,3.47
2018-07-31T20:02:24.108Z,1.35
2018-07-31T20:04:30.309Z,2.22
2018-07-31T20:06:35.308Z,3.05
2018-07-31T20:08:40.266Z,3.83
2018-07-31T20:10:45.319Z,6.47
2018-07-31T20:12:50.281Z,7.15
2018-07-31T20:14:55.286Z,7.92
2018-07-31T20:17:00.294Z,3.50
2018-07-31T20:19:05.225Z,2.15
2018-07-31T20:21:10.215Z,4.80
2018-07-31T20:23:15.139Z,2.58
2018-07-31T20:25:20.137Z,3.57
2018-07-31T20:27:25.164Z,1.85
2018-07-31T20:29:30.128Z,4.87
2018-07-31T20:31:35.133Z,2.62
2018-07-31T20:33:40.142Z,1.55
2018-07-31T20:35:45.137Z,2.47
2018-07-31T20:37:51.095Z,1.90
2018-07-31T20:39:55.998Z,2.70
2018-07-31T20:42:02.242Z,1.22
2018-07-31T20:44:09.251Z,4.30
2018-07-31T20:46:15.209Z,2.75
2018-07-31T20:48:20.591Z,4.15
2018-07-31T20:50:25.101Z,1.77
2018-07-31T20:52:30.099Z,5.05
2018-07-31T20:54:35.203Z,2.45
2018-07-31T20:56:40.179Z,3.72
2018-07-31T20:58:45.135Z,5.75
2018-07-31T21:00:50.092Z,2.23
2018-07-31T21:02:55.021Z,1.70
2018-07-31T21:04:59.873Z,1.17
2018-07-31T21:07:08.607Z,1.63
2018-07-31T21:09:21.122Z,4.50
2018-07-31T21:11:28.267Z,3.90
2018-07-31T21:13:33.272Z,2.72
2018-07-31T21:15:38.245Z,1.87
2018-07-31T21:17:44.661Z,4.67
2018-07-31T21:19:49.595Z,1.77
2018-07-31T21:21:54.603Z,3.77
2018-07-31T21:24:00.270Z,3.47
2018-07-31T21:26:07.548Z,3.80
2018-07-31T21:28:15.558Z,2.47
2018-07-31T21:30:22.505Z,2.37
2018-07-31T21:32:27.546Z,3.87
2018-07-31T21:34:34.066Z,2.70
2018-07-31T21:36:39.080Z,3.77
2018-07-31T21:38:45.193Z,2.20
2018-07-31T21:40:54.017Z,1.70
2018-07-31T21:43:00.492Z,2.57
2018-07-31T21:45:07.804Z,3.97
2018-07-31T21:47:13.175Z,1.73
2018-07-31T21:49:18.453Z,1.97
2018-07-31T21:51:23.555Z,4.20
2018-07-31T21:53:29.959Z,1.63
2018-07-31T21:55:35.842Z,2.53
2018-07-31T21:57:40.778Z,1.90
2018-07-31T21:59:45.806Z,1.93
2018-07-31T22:01:52.997Z,2.17
2018-07-31T22:03:59.862Z,2.47
2018-07-31T22:06:07.915Z,4.27
2018-07-31T22:08:16.083Z,5.07
2018-07-31T22:10:23.488Z,4.10
2018-07-31T22:12:28.653Z,2.27
2018-07-31T22:14:33.666Z,2.90
2018-07-31T22:16:38.646Z,3.03
2018-07-31T22:18:43.564Z,2.80
2018-07-31T22:20:48.505Z,2.33
2018-07-31T22:22:53.982Z,1.30
2018-07-31T22:24:58.520Z,1.57
2018-07-31T22:27:03.413Z,2.90
2018-07-31T22:29:08.971Z,1.77
2018-07-31T22:31:14.145Z,2.33
2018-07-31T22:33:19.042Z,3.93
2018-07-31T22:35:24.034Z,2.93
2018-07-31T22:37:28.899Z,4.37
2018-07-31T22:39:33.787Z,1.90
2018-07-31T22:41:38.702Z,6.40
2018-07-31T22:43:43.680Z,2.63
2018-07-31T22:45:48.740Z,1.30
2018-07-31T22:47:53.871Z,2.77
2018-07-31T22:49:58.878Z,3.73
2018-07-31T22:52:03.816Z,4.27
2018-07-31T22:54:08.788Z,3.13
2018-07-31T22:56:13.746Z,1.80
2018-07-31T22:58:18.665Z,2.27
2018-07-31T23:00:23.624Z,1.30
2018-07-31T23:02:28.100Z,1.43
2018-07-31T23:04:32.874Z,3.37
2018-07-31T23:06:37.861Z,1.23
2018-07-31T23:08:42.793Z,3.53
2018-07-31T23:10:47.724Z,1.20
2018-07-31T23:12:52.686Z,6.63
2018-07-31T23:14:58.309Z,2.30
2018-07-31T23:17:03.320Z,1.93
2018-07-31T23:19:08.328Z,2.80
2018-07-31T23:21:13.323Z,3.27
2018-07-31T23:23:18.363Z,4.37
2018-07-31T23:25:23.272Z,5.03
2018-07-31T23:27:28.313Z,2.23
2018-07-31T23:29:33.367Z,2.57
2018-07-31T23:31:38.401Z,1.40
2018-07-31T23:33:43.349Z,1.93
2018-07-31T23:35:48.287Z,1.17
2018-07-31T23:37:53.284Z,2.20
2018-07-31T23:39:58.529Z,1.87
2018-07-31T23:42:03.441Z,3.60
2018-07-31T23:44:09.174Z,3.23
2018-07-31T23:46:13.662Z,2.23
2018-07-31T23:48:18.478Z,3.20
2018-07-31T23:50:23.485Z,3.87
2018-07-31T23:52:28.719Z,3.00
2018-07-31T23:54:33.670Z,3.67
2018-07-31T23:56:38.738Z,5.87
2018-07-31T23:58:43.790Z,2.30
